Louis, Missouri
Current Conditions -  °F | °C
As of 1:53 PM on Monday 22 Dec 2014 (Local Time) from KCPS Reporting Station
Light Rain Light Rain  
Wind Chill:   Ceiling: 700
Heat Index:   Visibility: 5mi
Dew Point:   Wind: 7mph
Humidity: 93%   Direction: 140°SE
Pressure: 29.59"   Gusts: NA
Location:  38.6578°N, 90.2474°W
Report Text: KCPS 221953Z 14006KT 5SM -RA BR BKN007 OVC011 09/08 A2959 RMK AO2 SLP021 P0005 T00940083
Loading
Personal Weather Stations






























Interactive Weather Map New forecast layout! Learn more

10-Day Weather Forecast

Advertisements
Track Severe Weather on mobile